Time;durP1;ratioP1;P1;durP2;ratioP2;P2;SDS_P1;SDS_P2;PMS_P1;PMS_P2;Temp;Humidity;BMP_temperature;BMP_pressure;BME280_temperature;BME280_humidity;BME280_pressure;Samples;Min_cycle;Max_cycle;Signal;HPM_P1;HPM_P2
2022/05/21 06:03:01;;;;;;;7.40;5.10;;;;;;;;;;10759856;27;20401;-88
2022/05/21 06:08:09;;;;;;;9.57;5.47;;;;;;;;;;10692453;27;20031;-86
2022/05/21 06:13:22;;;;;;;6.05;4.72;;;;;;;;;;10709841;27;20490;-87
2022/05/21 06:18:45;;;;;;;8.10;5.10;;;;;;;;;;10655917;27;20522;-87
2022/05/21 06:24:15;;;;;;;8.63;5.70;;;;;;;;;;10678820;27;20122;-87
2022/05/21 06:29:39;;;;;;;6.28;4.78;;;;;;;;;;10669923;27;20045;-88
2022/05/21 06:34:42;;;;;;;8.98;6.68;;;;;;;;;;10706335;27;20464;-87
2022/05/21 06:39:54;;;;;;;6.07;4.53;;;;;;;;;;10688083;27;20067;-87
2022/05/21 06:45:00;;;;;;;6.93;4.22;;;;;;;;;;10688344;27;20459;-87
2022/05/21 06:56:10;;;;;;;7.95;5.07;;;;;;;;;;10702853;27;20030;-87
2022/05/21 07:01:11;;;;;;;3.25;2.45;;;;;;;;;;10718356;27;20109;-81
2022/05/21 07:11:32;;;;;;;4.25;2.85;;;;;;;;;;10704855;27;20027;-82
2022/05/21 07:16:33;;;;;;;5.50;2.85;;;;;;;;;;10694561;27;20023;-82
2022/05/21 07:21:34;;;;;;;3.97;2.90;;;;;;;;;;10685108;27;20079;-82
2022/05/21 07:26:35;;;;;;;5.40;3.35;;;;;;;;;;10684402;27;20030;-81
2022/05/21 07:31:36;;;;;;;5.80;3.55;;;;;;;;;;10683354;27;20125;-82
2022/05/21 07:36:37;;;;;;;6.50;3.08;;;;;;;;;;10681880;27;20018;-82
2022/05/21 07:41:38;;;;;;;5.75;2.95;;;;;;;;;;10682675;27;20125;-81
2022/05/21 07:46:39;;;;;;;5.15;3.22;;;;;;;;;;10677979;22;20054;-86
2022/05/21 07:51:41;;;;;;;4.75;3.28;;;;;;;;;;10457743;28;20049;-85
2022/05/21 07:56:42;;;;;;;5.10;3.33;;;;;;;;;;10455825;28;20134;-85
2022/05/21 08:01:45;;;;;;;5.97;3.33;;;;;;;;;;10456809;28;20438;-85
2022/05/21 08:06:46;;;;;;;4.38;2.95;;;;;;;;;;10451191;28;20032;-85
2022/05/21 08:11:48;;;;;;;6.30;3.65;;;;;;;;;;10385975;28;20033;-86
2022/05/21 08:16:50;;;;;;;6.60;3.40;;;;;;;;;;10453656;28;20018;-84
2022/05/21 08:21:51;;;;;;;6.45;3.53;;;;;;;;;;10452113;28;20029;-85
2022/05/21 08:27:00;;;;;;;6.35;3.63;;;;;;;;;;10454418;28;20395;-85
2022/05/21 08:32:02;;;;;;;6.30;3.22;;;;;;;;;;10452892;28;20025;-84
2022/05/21 08:37:03;;;;;;;6.78;3.92;;;;;;;;;;10465633;28;20030;-84
2022/05/21 08:42:13;;;;;;;7.10;3.92;;;;;;;;;;10466097;28;20041;-83
2022/05/21 08:47:35;;;;;;;11.25;7.18;;;;;;;;;;10449828;28;20051;-85
2022/05/21 08:52:43;;;;;;;10.10;4.28;;;;;;;;;;10380463;28;20475;-85
2022/05/21 08:57:49;;;;;;;8.88;4.60;;;;;;;;;;10446379;28;20018;-85
2022/05/21 09:02:50;;;;;;;6.25;3.95;;;;;;;;;;10447060;28;20026;-85
2022/05/21 09:07:57;;;;;;;6.93;4.22;;;;;;;;;;10446986;28;20040;-85
2022/05/21 09:13:03;;;;;;;8.15;5.07;;;;;;;;;;10449516;28;20025;-85
2022/05/21 09:18:04;;;;;;;6.43;4.60;;;;;;;;;;10453193;28;20042;-87
2022/05/21 09:23:08;;;;;;;7.68;4.63;;;;;;;;;;10384306;28;20387;-84
2022/05/21 09:28:11;;;;;;;7.68;4.70;;;;;;;;;;10435633;28;20034;-83
2022/05/21 09:50:17;;;;;;;7.65;4.75;;;;;;;;;;10392552;28;19921;-85
2022/05/21 09:55:23;;;;;;;5.95;4.30;;;;;;;;;;10447894;28;20053;-85
2022/05/21 10:00:28;;;;;;;11.68;6.05;;;;;;;;;;10446813;28;20049;-86
2022/05/21 10:05:35;;;;;;;11.68;7.93;;;;;;;;;;10448052;28;20030;-85
2022/05/21 10:10:59;;;;;;;8.50;4.60;;;;;;;;;;10447544;28;20063;-86
2022/05/21 10:16:11;;;;;;;9.57;5.38;;;;;;;;;;10440083;28;20034;-84
2022/05/21 10:21:39;;;;;;;7.53;4.95;;;;;;;;;;10451969;28;20022;-85
2022/05/21 10:27:01;;;;;;;9.70;6.22;;;;;;;;;;10449960;28;20046;-83
2022/05/21 10:32:23;;;;;;;8.70;4.80;;;;;;;;;;10452968;28;20034;-83
2022/05/21 10:37:49;;;;;;;9.23;4.95;;;;;;;;;;10467031;28;20067;-83
2022/05/21 10:43:02;;;;;;;7.63;4.80;;;;;;;;;;10451423;28;20037;-83
2022/05/21 10:48:15;;;;;;;7.25;4.72;;;;;;;;;;10459463;28;20034;-84
2022/05/21 10:53:19;;;;;;;8.50;5.20;;;;;;;;;;10457752;28;20102;-86
2022/05/21 10:58:39;;;;;;;7.55;4.75;;;;;;;;;;10453097;28;20026;-86
2022/05/21 11:03:52;;;;;;;7.20;4.10;;;;;;;;;;10455329;28;20057;-86
2022/05/21 11:09:19;;;;;;;7.30;4.20;;;;;;;;;;10458076;28;20120;-86
2022/05/21 11:14:23;;;;;;;10.70;4.30;;;;;;;;;;10398304;28;20348;-83
2022/05/21 11:19:43;;;;;;;7.05;4.20;;;;;;;;;;10392856;28;20030;-83
2022/05/21 11:24:58;;;;;;;6.18;4.43;;;;;;;;;;10460216;28;20067;-83
2022/05/21 11:30:20;;;;;;;6.57;4.35;;;;;;;;;;10460256;28;20032;-83
2022/05/21 11:40:50;;;;;;;6.88;4.28;;;;;;;;;;10613110;23;20043;-83
2022/05/21 11:46:04;;;;;;;6.43;4.07;;;;;;;;;;10604854;28;20483;-83
2022/05/21 11:51:21;;;;;;;4.85;4.00;;;;;;;;;;10599658;28;20028;-84
2022/05/21 12:13:52;;;;;;;7.57;5.32;;;;;;;;;;10532620;28;20370;-84
2022/05/21 12:48:21;;;;;;;7.00;5.07;;;;;;;;;;10371661;28;20042;-84
2022/05/21 12:59:36;;;;;;;7.60;4.90;;;;;;;;;;10328255;28;20031;-84
2022/05/21 13:10:46;;;;;;;8.20;4.85;;;;;;;;;;10376452;28;20026;-84
2022/05/21 13:22:03;;;;;;;8.50;4.97;;;;;;;;;;10420373;28;20006;-84
2022/05/21 13:33:33;;;;;;;5.68;3.40;;;;;;;;;;10502168;28;20044;-84
2022/05/21 13:44:35;;;;;;;5.40;3.60;;;;;;;;;;10576912;28;20028;-84
2022/05/21 13:49:38;;;;;;;7.78;3.80;;;;;;;;;;10513430;22;20060;-87
2022/05/21 13:54:40;;;;;;;6.50;4.03;;;;;;;;;;10449664;28;20028;-86
2022/05/21 14:00:16;;;;;;;7.18;4.57;;;;;;;;;;10581026;27;20018;-86
2022/05/21 14:05:23;;;;;;;4.82;3.83;;;;;;;;;;10707632;27;20019;-86
2022/05/21 14:10:32;;;;;;;10.23;4.82;;;;;;;;;;10718749;27;20050;-84
2022/05/21 14:15:43;;;;;;;6.13;3.87;;;;;;;;;;10701351;27;20014;-82
2022/05/21 14:20:57;;;;;;;7.20;3.97;;;;;;;;;;10721249;27;20017;-82
2022/05/21 14:26:10;;;;;;;7.63;3.85;;;;;;;;;;10699751;27;20034;-87
2022/05/21 14:31:23;;;;;;;7.95;3.78;;;;;;;;;;10676551;27;20089;-87
2022/05/21 14:36:26;;;;;;;6.50;3.13;;;;;;;;;;10675577;27;20086;-87
2022/05/21 14:41:31;;;;;;;5.72;3.13;;;;;;;;;;10691424;27;20023;-86
2022/05/21 14:57:17;;;;;;;7.13;4.00;;;;;;;;;;10707188;27;20086;-87
2022/05/21 15:02:18;;;;;;;5.57;3.30;;;;;;;;;;10693927;27;20527;-86
2022/05/21 15:07:25;;;;;;;6.55;3.67;;;;;;;;;;10671335;27;20022;-87
2022/05/21 15:12:26;;;;;;;5.82;3.30;;;;;;;;;;10671071;27;20041;-86
2022/05/21 15:17:27;;;;;;;6.53;3.30;;;;;;;;;;10670183;27;20026;-86
2022/05/21 15:22:28;;;;;;;8.52;3.03;;;;;;;;;;10685678;27;20033;-86
2022/05/21 15:27:29;;;;;;;7.63;3.35;;;;;;;;;;10669147;27;20038;-87
2022/05/21 15:32:30;;;;;;;6.95;3.13;;;;;;;;;;10667933;27;20047;-87
2022/05/21 15:37:32;;;;;;;5.63;3.17;;;;;;;;;;10668590;27;20023;-86
2022/05/21 15:42:36;;;;;;;6.55;4.18;;;;;;;;;;10667744;27;20057;-87
2022/05/21 15:47:37;;;;;;;6.50;3.35;;;;;;;;;;10669571;27;20042;-86
2022/05/21 15:52:41;;;;;;;6.05;3.40;;;;;;;;;;10669043;27;20027;-86
2022/05/21 15:57:42;;;;;;;5.78;3.67;;;;;;;;;;10686013;27;20015;-86
2022/05/21 16:02:43;;;;;;;7.25;3.97;;;;;;;;;;10669899;27;20113;-86
2022/05/21 16:07:45;;;;;;;8.30;3.60;;;;;;;;;;10669491;27;20026;-87
2022/05/21 16:12:48;;;;;;;8.50;4.95;;;;;;;;;;10669776;27;20022;-87
2022/05/21 16:17:50;;;;;;;10.60;5.55;;;;;;;;;;10669532;27;20055;-86
2022/05/21 16:22:51;;;;;;;6.95;3.63;;;;;;;;;;10686994;27;20062;-87
2022/05/21 16:27:51;;;;;;;7.30;3.00;;;;;;;;;;10698201;27;20022;-86
2022/05/21 16:32:53;;;;;;;6.30;3.40;;;;;;;;;;10689155;27;20031;-86
2022/05/21 16:37:54;;;;;;;5.13;3.00;;;;;;;;;;10682906;27;20075;-87
2022/05/21 16:42:55;;;;;;;5.18;2.85;;;;;;;;;;10672963;27;20067;-86
2022/05/21 16:47:56;;;;;;;5.60;3.00;;;;;;;;;;10663644;27;20037;-86
2022/05/21 16:52:57;;;;;;;5.28;3.00;;;;;;;;;;10688180;27;20076;-86
2022/05/21 16:57:58;;;;;;;4.63;2.92;;;;;;;;;;10669775;27;20022;-86
2022/05/21 17:02:59;;;;;;;6.68;2.80;;;;;;;;;;10658479;27;20042;-87
2022/05/21 17:08:00;;;;;;;6.10;2.88;;;;;;;;;;10656723;27;20030;-86
2022/05/21 17:13:02;;;;;;;14.60;9.93;;;;;;;;;;10655667;27;20050;-87
2022/05/21 17:18:03;;;;;;;5.95;2.60;;;;;;;;;;10656966;27;20109;-87
2022/05/21 17:23:04;;;;;;;8.63;2.75;;;;;;;;;;10660333;27;20019;-86
2022/05/21 17:33:25;;;;;;;6.22;2.58;;;;;;;;;;10691404;27;20027;-85
2022/05/21 17:38:30;;;;;;;5.45;2.20;;;;;;;;;;10693661;27;20033;-88
2022/05/21 17:43:33;;;;;;;5.05;2.30;;;;;;;;;;10690878;27;20027;-87
2022/05/21 17:48:35;;;;;;;5.45;2.40;;;;;;;;;;10668600;27;20035;-87
2022/05/21 17:53:36;;;;;;;4.47;1.92;;;;;;;;;;10663806;27;20027;-87
2022/05/21 17:58:38;;;;;;;4.68;2.00;;;;;;;;;;10635241;27;20029;-87
2022/05/21 18:03:39;;;;;;;4.57;1.90;;;;;;;;;;10666999;27;20023;-86
2022/05/21 18:08:40;;;;;;;4.30;2.00;;;;;;;;;;10667133;27;20022;-87
2022/05/21 18:13:41;;;;;;;4.32;1.90;;;;;;;;;;10648190;27;20031;-86
2022/05/21 18:24:03;;;;;;;3.87;2.00;;;;;;;;;;10684083;27;20027;-86
2022/05/21 18:29:04;;;;;;;5.38;1.98;;;;;;;;;;10687425;27;20256;-87
2022/05/21 18:34:05;;;;;;;4.05;2.00;;;;;;;;;;10662887;27;20118;-88
2022/05/21 18:39:07;;;;;;;4.78;2.72;;;;;;;;;;10657540;27;20054;-85
2022/05/21 18:44:14;;;;;;;4.82;2.90;;;;;;;;;;10677754;27;20039;-84
2022/05/21 18:49:15;;;;;;;4.50;2.83;;;;;;;;;;10664298;27;20095;-87
2022/05/21 18:54:16;;;;;;;4.82;3.38;;;;;;;;;;10658640;27;20086;-85
2022/05/21 18:59:17;;;;;;;5.75;3.08;;;;;;;;;;10678254;27;20019;-85
2022/05/21 19:04:18;;;;;;;4.47;3.05;;;;;;;;;;10675777;27;20022;-87
2022/05/21 19:09:19;;;;;;;3.95;2.60;;;;;;;;;;10667240;27;20090;-87
2022/05/21 19:14:20;;;;;;;4.72;2.47;;;;;;;;;;10665922;27;20031;-86
2022/05/21 19:19:22;;;;;;;5.53;2.65;;;;;;;;;;10666680;27;20023;-86
2022/05/21 19:24:24;;;;;;;4.68;3.47;;;;;;;;;;10689336;27;20015;-88
